Time;durP1;ratioP1;P1;durP2;ratioP2;P2;SDS_P1;SDS_P2;PMS_P1;PMS_P2;Temp;Humidity;BMP_temperature;BMP_pressure;BME280_temperature;BME280_humidity;BME280_pressure;Samples;Min_cycle;Max_cycle;Signal;HPM_P1;HPM_P2
2022/10/17 00:00:26;;;;;;;15.23;3.65;;;12.20;99.90;;;;;;5069783;28;20492;-70
2022/10/17 00:02:55;;;;;;;15.77;3.50;;;12.20;99.90;;;;;;5068596;28;20041;-70
2022/10/17 00:05:21;;;;;;;12.85;3.65;;;12.20;99.90;;;;;;5073884;28;20045;-70
2022/10/17 00:07:47;;;;;;;13.10;3.58;;;12.10;99.90;;;;;;5068239;28;20386;-70
2022/10/17 00:10:12;;;;;;;17.25;4.00;;;12.10;99.90;;;;;;5069285;28;20067;-70
2022/10/17 00:12:38;;;;;;;12.18;3.35;;;12.10;99.90;;;;;;5047820;28;20037;-70
2022/10/17 00:15:06;;;;;;;16.08;3.83;;;12.10;99.90;;;;;;5067642;28;20119;-70
2022/10/17 00:17:32;;;;;;;13.27;3.47;;;12.10;99.90;;;;;;5051720;28;20127;-69
2022/10/17 00:19:59;;;;;;;11.70;3.35;;;12.10;99.90;;;;;;5067453;28;20032;-71
2022/10/17 00:22:26;;;;;;;23.48;3.83;;;12.10;99.90;;;;;;5063860;28;20147;-70
2022/10/17 00:24:52;;;;;;;14.90;4.05;;;12.10;99.90;;;;;;5044632;28;20057;-70
2022/10/17 00:27:18;;;;;;;11.13;3.30;;;12.10;99.90;;;;;;5068039;28;20048;-70
2022/10/17 00:29:49;;;;;;;13.02;3.70;;;12.10;99.90;;;;;;5051681;28;20063;-70
2022/10/17 00:32:14;;;;;;;17.30;3.97;;;12.10;99.90;;;;;;5066818;28;20047;-70
2022/10/17 00:34:40;;;;;;;9.45;2.92;;;12.20;99.90;;;;;;5066454;28;20048;-70
2022/10/17 00:37:06;;;;;;;14.55;3.53;;;12.20;99.90;;;;;;5058576;28;20051;-70
2022/10/17 00:39:32;;;;;;;13.65;3.33;;;12.10;99.90;;;;;;5059512;28;20048;-70
2022/10/17 00:41:58;;;;;;;15.57;3.85;;;12.10;99.90;;;;;;5054296;28;20170;-70
2022/10/17 00:44:30;;;;;;;11.38;3.78;;;12.10;99.90;;;;;;5067164;28;20151;-70
2022/10/17 00:47:10;;;;;;;16.38;3.20;;;12.10;99.90;;;;;;5068856;28;20051;-70
2022/10/17 00:49:37;;;;;;;12.68;3.38;;;12.10;99.90;;;;;;5068196;28;20052;-70
2022/10/17 00:52:12;;;;;;;13.73;3.40;;;12.10;99.90;;;;;;5068977;28;20120;-70
2022/10/17 00:54:43;;;;;;;13.20;2.92;;;12.10;99.90;;;;;;5064997;28;20524;-70
2022/10/17 00:57:10;;;;;;;13.88;3.42;;;11.90;99.90;;;;;;5058027;28;20398;-70
2022/10/17 00:59:38;;;;;;;9.45;3.10;;;12.10;99.90;;;;;;5065735;28;20057;-70
2022/10/17 01:02:09;;;;;;;12.07;2.88;;;12.10;99.90;;;;;;5049241;28;20056;-70
2022/10/17 01:04:40;;;;;;;12.38;3.72;;;12.10;99.90;;;;;;5067013;28;20047;-70
2022/10/17 01:07:05;;;;;;;12.52;3.75;;;12.10;99.90;;;;;;5062382;28;20124;-70
2022/10/17 01:09:31;;;;;;;10.38;3.30;;;12.10;99.90;;;;;;5084427;28;20179;-70
2022/10/17 01:12:00;;;;;;;14.88;3.00;;;12.10;99.90;;;;;;5065739;28;20068;-70
2022/10/17 01:14:43;;;;;;;15.95;3.55;;;12.10;99.90;;;;;;5067626;28;20167;-70
2022/10/17 01:17:44;;;;;;;13.07;3.25;;;12.10;99.90;;;;;;5066387;28;20041;-70
2022/10/17 01:20:22;;;;;;;10.00;3.42;;;12.10;99.90;;;;;;5067478;28;20045;-70
2022/10/17 01:23:18;;;;;;;11.48;3.47;;;12.10;99.90;;;;;;5067456;28;20496;-70
2022/10/17 01:26:18;;;;;;;10.98;3.42;;;12.20;99.90;;;;;;5066740;28;20041;-70
2022/10/17 01:29:08;;;;;;;8.45;3.10;;;12.20;99.90;;;;;;5062818;28;20061;-72
2022/10/17 01:31:53;;;;;;;11.15;3.40;;;12.20;99.90;;;;;;5050337;28;20052;-70
2022/10/17 01:34:21;;;;;;;11.65;3.50;;;12.30;99.90;;;;;;5048492;28;20125;-70
2022/10/17 01:37:25;;;;;;;9.45;3.35;;;12.30;99.90;;;;;;5067119;28;20123;-70
2022/10/17 01:40:09;;;;;;;11.43;3.60;;;12.40;99.90;;;;;;5063415;28;20056;-70
2022/10/17 01:42:49;;;;;;;14.90;3.20;;;12.40;99.90;;;;;;5063154;28;20511;-69
2022/10/17 01:45:28;;;;;;;12.23;3.35;;;12.40;99.90;;;;;;5064482;28;20468;-70
2022/10/17 01:47:57;;;;;;;14.15;3.00;;;12.40;99.90;;;;;;5064065;28;20132;-69
2022/10/17 01:50:31;;;;;;;9.55;3.13;;;12.50;99.90;;;;;;5065502;28;20047;-70
2022/10/17 01:53:26;;;;;;;9.73;3.25;;;12.50;99.90;;;;;;5063393;28;20147;-70
2022/10/17 01:55:55;;;;;;;12.10;3.38;;;12.50;99.90;;;;;;5064504;28;20413;-70
2022/10/17 01:58:29;;;;;;;7.50;2.75;;;12.50;99.90;;;;;;5066024;28;20048;-70
2022/10/17 02:01:00;;;;;;;10.52;3.30;;;12.50;99.90;;;;;;5067427;28;21311;-70
2022/10/17 02:03:27;;;;;;;12.13;3.17;;;12.50;99.90;;;;;;5063450;28;20064;-70
2022/10/17 02:05:53;;;;;;;13.25;3.40;;;12.50;99.90;;;;;;5067475;28;20409;-70
2022/10/17 02:08:40;;;;;;;10.25;3.40;;;12.50;99.90;;;;;;5065892;28;20044;-70
2022/10/17 02:11:21;;;;;;;9.30;3.30;;;12.50;99.90;;;;;;5063127;28;20048;-70
2022/10/17 02:14:35;;;;;;;12.20;3.28;;;12.50;99.90;;;;;;5065351;28;20118;-69
2022/10/17 02:17:21;;;;;;;11.38;3.25;;;12.50;99.90;;;;;;5050632;28;20053;-70
2022/10/17 02:20:03;;;;;;;12.32;3.25;;;12.50;99.90;;;;;;5045472;28;20554;-71
2022/10/17 02:22:37;;;;;;;14.40;3.42;;;12.50;99.90;;;;;;5074558;28;20402;-69
2022/10/17 02:25:22;;;;;;;10.60;3.22;;;12.50;99.90;;;;;;5064030;28;20429;-69
2022/10/17 02:27:48;;;;;;;9.70;3.22;;;12.50;99.90;;;;;;5064784;28;20512;-70
2022/10/17 02:30:17;;;;;;;10.48;3.58;;;12.50;99.90;;;;;;5044272;28;20059;-69
2022/10/17 02:33:20;;;;;;;12.35;3.42;;;12.50;99.90;;;;;;5096051;28;20060;-70
2022/10/17 02:35:53;;;;;;;11.85;3.35;;;12.50;99.90;;;;;;5062393;28;20057;-70
2022/10/17 02:38:20;;;;;;;13.88;4.07;;;12.60;99.90;;;;;;5065382;28;20133;-70
2022/10/17 02:40:49;;;;;;;10.73;3.97;;;12.50;99.90;;;;;;5048040;28;20066;-71
2022/10/17 02:43:15;;;;;;;9.18;3.60;;;12.50;99.90;;;;;;5065887;28;20040;-71
2022/10/17 02:45:41;;;;;;;12.77;3.85;;;12.50;99.90;;;;;;5061803;28;20047;-72
2022/10/17 02:48:33;;;;;;;10.90;4.10;;;12.60;99.90;;;;;;5065701;28;20036;-71
2022/10/17 02:51:31;;;;;;;14.57;4.15;;;12.50;99.90;;;;;;5066592;28;20049;-70
2022/10/17 02:54:05;;;;;;;7.30;3.33;;;12.50;99.90;;;;;;5064566;28;20044;-70
2022/10/17 02:56:41;;;;;;;13.30;4.18;;;12.70;99.90;;;;;;5089733;28;20467;-70
2022/10/17 02:59:11;;;;;;;12.35;4.00;;;12.50;99.90;;;;;;5063543;28;20041;-70
2022/10/17 03:01:37;;;;;;;11.80;4.90;;;12.50;99.90;;;;;;5068003;28;20051;-70
2022/10/17 03:04:11;;;;;;;14.50;5.07;;;12.50;99.90;;;;;;5067631;28;20036;-70
2022/10/17 03:06:37;;;;;;;10.80;4.55;;;12.50;99.90;;;;;;5064031;28;20512;-69
2022/10/17 03:09:03;;;;;;;9.52;4.13;;;12.50;99.90;;;;;;5049190;28;20068;-70
2022/10/17 03:11:29;;;;;;;10.43;4.53;;;12.50;99.90;;;;;;5062199;28;20049;-70
2022/10/17 03:13:55;;;;;;;10.77;5.35;;;12.50;99.90;;;;;;5066810;28;20945;-70
2022/10/17 03:16:20;;;;;;;13.45;5.07;;;12.50;99.90;;;;;;5048357;28;20135;-70
2022/10/17 03:18:46;;;;;;;13.05;5.32;;;12.50;99.90;;;;;;5066022;28;20144;-70
2022/10/17 03:21:12;;;;;;;13.60;5.03;;;12.50;99.90;;;;;;5048476;28;20032;-69
2022/10/17 03:23:37;;;;;;;12.70;5.40;;;12.50;99.90;;;;;;5049409;28;20123;-70
2022/10/17 03:26:04;;;;;;;11.38;4.90;;;12.60;99.90;;;;;;5067443;28;20037;-70
2022/10/17 03:28:30;;;;;;;11.52;5.68;;;12.60;99.90;;;;;;5066493;28;20185;-70
2022/10/17 03:30:56;;;;;;;14.50;5.70;;;12.60;99.90;;;;;;5049830;28;20119;-70
2022/10/17 03:33:22;;;;;;;12.98;6.28;;;12.60;99.90;;;;;;5065297;28;20045;-70
2022/10/17 03:35:47;;;;;;;13.20;6.13;;;12.60;99.90;;;;;;5060696;28;20052;-70
2022/10/17 03:38:13;;;;;;;13.20;5.85;;;12.60;99.90;;;;;;5065640;28;20137;-70
2022/10/17 03:40:39;;;;;;;12.52;5.70;;;12.60;99.90;;;;;;5065930;28;20048;-70
2022/10/17 03:43:04;;;;;;;13.50;6.53;;;12.60;99.90;;;;;;5065320;28;20069;-70
2022/10/17 03:45:30;;;;;;;14.82;6.53;;;12.60;99.90;;;;;;5066746;28;20045;-70
2022/10/17 03:47:58;;;;;;;10.80;6.38;;;12.60;99.90;;;;;;5051597;28;20048;-70
2022/10/17 03:50:24;;;;;;;13.05;6.43;;;12.60;99.90;;;;;;5068674;28;20074;-70
2022/10/17 03:52:49;;;;;;;9.68;6.35;;;12.70;99.90;;;;;;5070669;28;20563;-70
2022/10/17 03:55:16;;;;;;;11.57;7.05;;;12.70;99.90;;;;;;5068131;28;20067;-71
2022/10/17 03:57:42;;;;;;;17.40;7.90;;;12.70;99.90;;;;;;5064404;28;20118;-70
2022/10/17 04:00:08;;;;;;;12.02;7.97;;;12.70;99.90;;;;;;5066227;28;20106;-70
2022/10/17 04:02:34;;;;;;;14.68;7.05;;;12.70;99.90;;;;;;5065306;28;20044;-70
2022/10/17 04:05:00;;;;;;;16.17;8.32;;;12.70;99.90;;;;;;5075290;28;20045;-70
2022/10/17 04:07:26;;;;;;;13.38;7.90;;;12.80;99.90;;;;;;5066385;28;20086;-69
2022/10/17 04:09:53;;;;;;;12.98;8.30;;;12.80;99.90;;;;;;5069113;28;20405;-70
2022/10/17 04:12:19;;;;;;;13.73;8.95;;;12.90;99.90;;;;;;5067524;28;20389;-70
2022/10/17 04:14:44;;;;;;;18.75;9.35;;;12.90;99.90;;;;;;5069252;28;20044;-70
2022/10/17 04:17:10;;;;;;;15.20;8.63;;;12.90;99.90;;;;;;5067883;28;20044;-70
2022/10/17 04:19:36;;;;;;;13.23;9.13;;;12.90;99.90;;;;;;5094733;28;20131;-69
2022/10/17 04:22:07;;;;;;;15.50;8.82;;;13.00;99.90;;;;;;5069178;28;20394;-69
2022/10/17 04:24:33;;;;;;;12.38;9.15;;;13.00;99.90;;;;;;5068511;28;20041;-69
2022/10/17 04:26:58;;;;;;;12.55;9.18;;;13.00;99.90;;;;;;5068617;28;20497;-69
2022/10/17 04:29:25;;;;;;;13.43;9.70;;;13.30;99.90;;;;;;5063374;28;20321;-69
2022/10/17 04:31:51;;;;;;;14.43;8.68;;;13.10;99.90;;;;;;5067694;28;20109;-69
2022/10/17 04:34:17;;;;;;;13.43;9.38;;;13.10;99.90;;;;;;5069027;28;20036;-68
2022/10/17 04:36:43;;;;;;;15.00;10.07;;;13.10;99.90;;;;;;5069916;28;20240;-69
2022/10/17 04:39:09;;;;;;;15.30;10.48;;;13.10;99.90;;;;;;5065995;28;20037;-69
2022/10/17 04:41:34;;;;;;;16.63;9.90;;;13.10;99.90;;;;;;5068195;28;20067;-69
2022/10/17 04:44:00;;;;;;;17.48;10.50;;;12.90;99.90;;;;;;5066544;28;20451;-69
2022/10/17 04:46:26;;;;;;;13.98;9.98;;;13.20;99.90;;;;;;5067880;28;20040;-69
2022/10/17 04:48:53;;;;;;;17.80;10.77;;;13.20;99.90;;;;;;5069888;28;20048;-69
2022/10/17 04:51:19;;;;;;;16.65;9.75;;;13.20;99.90;;;;;;5070009;28;20120;-69
2022/10/17 04:53:45;;;;;;;16.90;11.77;;;13.30;99.90;;;;;;5069017;28;20131;-69
2022/10/17 04:56:17;;;;;;;17.27;11.32;;;13.30;99.90;;;;;;5052114;28;20153;-69
2022/10/17 04:58:44;;;;;;;16.00;11.52;;;13.30;99.90;;;;;;5068078;28;20080;-69
2022/10/17 05:01:15;;;;;;;18.83;12.10;;;13.30;99.90;;;;;;5067707;28;20575;-69
2022/10/17 05:03:41;;;;;;;;;;;13.40;99.90;;;;;;5068142;28;20044;-68
2022/10/17 05:06:11;;;;;;;16.08;12.50;;;13.40;99.90;;;;;;5068672;28;20396;-69
2022/10/17 05:08:37;;;;;;;15.90;12.73;;;13.50;99.90;;;;;;5066701;28;20056;-69
2022/10/17 05:11:04;;;;;;;18.08;13.25;;;13.50;99.90;;;;;;5069633;28;20036;-69
2022/10/17 05:13:31;;;;;;;19.85;13.32;;;13.60;99.90;;;;;;5067018;28;20515;-69
2022/10/17 05:16:00;;;;;;;19.30;13.18;;;13.90;99.90;;;;;;5069681;28;20056;-69
2022/10/17 05:18:27;;;;;;;19.58;14.75;;;13.70;99.90;;;;;;5068659;28;20044;-69
2022/10/17 05:20:54;;;;;;;21.48;14.27;;;13.70;99.90;;;;;;5068311;28;20109;-69
2022/10/17 05:23:19;;;;;;;21.42;13.32;;;13.80;99.90;;;;;;5068798;28;20332;-69
2022/10/17 05:25:45;;;;;;;20.88;13.40;;;13.80;99.90;;;;;;5069488;28;20052;-69
2022/10/17 05:28:11;;;;;;;19.70;14.40;;;13.80;99.90;;;;;;5067079;28;20076;-69
2022/10/17 05:30:36;;;;;;;20.20;13.80;;;13.90;99.90;;;;;;5068499;28;20110;-71
2022/10/17 05:33:02;;;;;;;20.30;13.95;;;13.90;99.90;;;;;;5067612;28;20045;-70
2022/10/17 05:35:28;;;;;;;17.95;13.65;;;13.90;99.90;;;;;;5067160;28;20045;-70
2022/10/17 05:37:53;;;;;;;20.48;13.70;;;13.90;99.90;;;;;;5069136;28;20033;-70
2022/10/17 05:40:19;;;;;;;21.52;14.90;;;13.90;99.90;;;;;;5047408;28;20045;-71
2022/10/17 05:42:48;;;;;;;21.17;14.18;;;13.90;99.90;;;;;;5058610;28;20049;-71
2022/10/17 05:45:15;;;;;;;20.23;15.10;;;13.90;99.90;;;;;;5048875;28;20124;-71
2022/10/17 05:47:40;;;;;;;21.75;14.82;;;14.00;99.90;;;;;;5047911;28;20053;-71
2022/10/17 05:50:08;;;;;;;20.27;14.30;;;14.00;99.90;;;;;;5063179;28;20484;-71
2022/10/17 05:52:34;;;;;;;19.23;14.05;;;14.00;99.90;;;;;;5050737;28;20508;-71
2022/10/17 05:55:00;;;;;;;18.42;14.88;;;14.00;99.90;;;;;;5068590;28;20032;-71
2022/10/17 05:57:26;;;;;;;17.13;13.20;;;14.10;99.90;;;;;;5065936;28;20047;-70
2022/10/17 05:59:52;;;;;;;18.42;13.55;;;14.00;99.90;;;;;;5067850;28;20397;-70
2022/10/17 06:02:17;;;;;;;22.70;15.15;;;14.10;99.90;;;;;;5067801;28;20053;-70
2022/10/17 06:04:44;;;;;;;16.10;13.43;;;14.00;99.90;;;;;;5068369;28;20111;-71
2022/10/17 06:07:14;;;;;;;19.67;13.35;;;14.10;99.90;;;;;;5068341;28;20083;-71
2022/10/17 06:09:40;;;;;;;19.08;13.82;;;14.10;99.90;;;;;;5068438;28;20166;-71
2022/10/17 06:12:06;;;;;;;17.85;13.30;;;14.10;99.90;;;;;;5067356;28;20635;-71
2022/10/17 06:14:32;;;;;;;18.10;13.77;;;14.10;99.90;;;;;;5050250;28;20052;-71
2022/10/17 06:16:58;;;;;;;18.20;14.05;;;14.30;99.90;;;;;;5067580;28;20067;-71
2022/10/17 06:19:24;;;;;;;21.02;14.43;;;14.20;99.90;;;;;;5067940;28;20040;-71
2022/10/17 06:21:49;;;;;;;22.75;13.90;;;14.10;99.90;;;;;;5068893;28;20489;-71
2022/10/17 06:24:15;;;;;;;25.05;14.50;;;14.10;99.90;;;;;;5050586;28;20519;-71
2022/10/17 06:26:41;;;;;;;19.17;13.02;;;14.10;99.90;;;;;;5068311;28;20056;-71
2022/10/17 06:29:07;;;;;;;20.98;14.10;;;14.20;99.90;;;;;;5068659;28;20048;-70
2022/10/17 06:31:33;;;;;;;19.67;13.50;;;14.20;99.90;;;;;;5068858;28;20068;-71
2022/10/17 06:33:59;;;;;;;21.50;12.65;;;14.20;99.90;;;;;;5069505;28;20405;-71
2022/10/17 06:36:24;;;;;;;19.60;13.63;;;14.30;99.90;;;;;;5066933;28;20098;-71
2022/10/17 06:38:50;;;;;;;17.45;12.75;;;14.20;99.90;;;;;;5061925;28;20054;-71
2022/10/17 06:41:18;;;;;;;17.77;12.98;;;14.20;99.90;;;;;;5034124;28;20495;-71
2022/10/17 06:43:45;;;;;;;19.85;13.05;;;14.20;99.90;;;;;;5066458;28;20052;-70
2022/10/17 06:46:12;;;;;;;16.63;12.25;;;14.20;99.90;;;;;;5079824;28;20155;-71
2022/10/17 06:48:38;;;;;;;20.13;12.15;;;14.20;99.90;;;;;;5050403;28;20406;-71
2022/10/17 06:51:05;;;;;;;17.23;13.23;;;14.20;99.90;;;;;;5067185;28;20047;-71
2022/10/17 06:53:33;;;;;;;21.40;12.50;;;14.20;99.90;;;;;;5064750;28;20471;-71
2022/10/17 06:56:03;;;;;;;20.65;13.30;;;14.20;99.90;;;;;;5068357;28;20419;-71
2022/10/17 06:58:30;;;;;;;21.70;12.75;;;14.30;99.90;;;;;;5066291;28;20056;-71
2022/10/17 07:01:10;;;;;;;18.30;13.05;;;14.30;99.90;;;;;;5063448;28;20071;-70
2022/10/17 07:03:36;;;;;;;22.13;12.38;;;14.30;99.90;;;;;;5058104;28;20098;-70
2022/10/17 07:06:03;;;;;;;17.50;12.35;;;14.30;99.90;;;;;;5093227;28;20379;-70
2022/10/17 07:08:29;;;;;;;21.42;13.38;;;14.40;99.90;;;;;;5046291;28;20049;-70
2022/10/17 07:10:55;;;;;;;17.33;12.77;;;14.40;99.90;;;;;;5060883;28;20071;-69
2022/10/17 07:13:22;;;;;;;16.27;11.93;;;14.40;99.90;;;;;;5078835;28;20448;-70
2022/10/17 07:15:47;;;;;;;17.60;11.27;;;14.40;99.90;;;;;;5048181;28;20041;-70
2022/10/17 07:18:13;;;;;;;18.25;11.98;;;14.50;99.90;;;;;;5049659;28;20094;-70
2022/10/17 07:20:39;;;;;;;17.88;11.77;;;14.50;99.90;;;;;;5067562;28;20055;-70
2022/10/17 07:23:05;;;;;;;16.35;11.95;;;14.50;99.90;;;;;;5069133;28;20044;-70
2022/10/17 07:25:31;;;;;;;18.83;11.82;;;14.60;99.90;;;;;;5071213;28;20370;-70
2022/10/17 07:27:57;;;;;;;18.25;12.32;;;14.60;99.90;;;;;;5069624;28;20143;-70
2022/10/17 07:30:23;;;;;;;17.50;11.65;;;14.60;99.90;;;;;;5070394;28;20044;-70
2022/10/17 07:32:53;;;;;;;20.10;12.35;;;14.70;99.90;;;;;;5061361;28;20506;-70
2022/10/17 07:35:20;;;;;;;17.98;11.93;;;14.80;99.90;;;;;;5045487;28;20076;-70
2022/10/17 07:37:46;;;;;;;24.75;11.68;;;14.80;99.90;;;;;;5064994;28;20402;-70
2022/10/17 07:40:12;;;;;;;15.32;11.13;;;14.80;99.90;;;;;;5064593;28;20323;-70
2022/10/17 07:42:38;;;;;;;17.40;11.00;;;14.90;99.90;;;;;;5069236;28;20067;-70
2022/10/17 07:45:05;;;;;;;18.02;10.75;;;15.00;99.90;;;;;;5069373;28;20059;-70
2022/10/17 07:47:34;;;;;;;14.90;10.57;;;15.00;99.90;;;;;;5066798;28;20047;-70
2022/10/17 07:50:01;;;;;;;16.13;10.82;;;15.10;99.90;;;;;;5092415;28;20473;-70
2022/10/17 07:52:26;;;;;;;15.80;11.00;;;15.10;99.90;;;;;;5063137;28;20415;-69
2022/10/17 07:54:52;;;;;;;17.27;10.13;;;15.10;99.90;;;;;;5093389;28;20037;-70
2022/10/17 07:57:18;;;;;;;14.40;10.23;;;15.20;99.90;;;;;;5093240;28;20052;-70
2022/10/17 07:59:43;;;;;;;22.35;10.90;;;15.30;99.90;;;;;;5053250;28;20044;-70
2022/10/17 08:02:24;;;;;;;18.63;11.18;;;15.30;99.90;;;;;;5069338;28;20041;-70
2022/10/17 08:04:53;;;;;;;14.10;10.35;;;15.40;99.90;;;;;;5069098;28;20044;-69
2022/10/17 08:07:20;;;;;;;14.98;10.07;;;15.60;99.90;;;;;;5071332;28;20049;-70
2022/10/17 08:09:46;;;;;;;14.70;9.20;;;15.70;99.90;;;;;;5071184;28;20044;-70
2022/10/17 08:12:15;;;;;;;18.35;8.82;;;15.80;99.90;;;;;;5068533;28;20489;-70
2022/10/17 08:14:42;;;;;;;14.90;9.10;;;15.80;99.90;;;;;;5066881;28;20048;-69
2022/10/17 08:17:08;;;;;;;16.20;10.00;;;15.90;99.90;;;;;;5052285;28;20032;-70
2022/10/17 08:19:33;;;;;;;15.82;8.88;;;16.00;99.90;;;;;;5063372;28;20039;-70
2022/10/17 08:22:00;;;;;;;13.45;8.75;;;16.00;99.90;;;;;;5066297;28;20590;-70
2022/10/17 08:24:26;;;;;;;14.00;9.23;;;16.00;99.90;;;;;;5068717;28;20040;-70
2022/10/17 08:26:52;;;;;;;12.68;8.27;;;16.10;99.90;;;;;;5069595;28;20161;-70
2022/10/17 08:29:18;;;;;;;14.35;9.02;;;16.10;99.90;;;;;;5068607;28;20048;-70
2022/10/17 08:31:44;;;;;;;15.20;8.30;;;16.20;99.90;;;;;;5069587;28;20036;-70
2022/10/17 08:34:10;;;;;;;12.20;7.85;;;16.10;99.90;;;;;;5067238;28;20514;-70
2022/10/17 08:36:36;;;;;;;13.82;8.52;;;16.20;99.90;;;;;;5066053;28;20040;-71
2022/10/17 08:39:02;;;;;;;16.08;8.15;;;16.30;99.90;;;;;;5049319;28;20105;-71
2022/10/17 08:41:34;;;;;;;14.13;8.02;;;16.30;99.90;;;;;;5064207;28;20044;-71
2022/10/17 08:44:32;;;;;;;14.95;8.18;;;16.30;99.90;;;;;;5063957;28;20043;-70
2022/10/17 08:47:02;;;;;;;16.27;8.18;;;16.40;99.90;;;;;;5060395;28;20087;-70
2022/10/17 08:49:46;;;;;;;17.90;8.70;;;16.40;99.90;;;;;;5053354;28;20456;-71
2022/10/17 08:52:52;;;;;;;12.88;8.48;;;16.50;99.90;;;;;;5055174;28;20300;-70
2022/10/17 08:55:40;;;;;;;14.32;7.90;;;16.50;99.90;;;;;;5050877;28;20057;-70
2022/10/17 08:58:22;;;;;;;12.60;7.78;;;16.60;99.90;;;;;;5061841;28;20040;-70
2022/10/17 09:01:00;;;;;;;14.82;7.55;;;16.60;99.90;;;;;;5067294;28;20049;-70
2022/10/17 09:03:44;;;;;;;13.38;7.75;;;16.70;99.90;;;;;;5050447;28;20405;-69
2022/10/17 09:06:20;;;;;;;15.02;7.40;;;16.70;99.90;;;;;;5035487;28;20041;-71
2022/10/17 09:09:16;;;;;;;12.73;7.18;;;16.80;99.90;;;;;;5055696;28;20425;-71
2022/10/17 09:12:01;;;;;;;13.65;7.47;;;16.80;99.90;;;;;;5071834;28;20049;-70
2022/10/17 09:14:35;;;;;;;14.38;7.53;;;16.80;99.90;;;;;;5067405;28;20067;-70
2022/10/17 09:17:07;;;;;;;13.82;7.93;;;16.80;99.90;;;;;;5066962;28;20032;-71
2022/10/17 09:19:43;;;;;;;14.75;7.95;;;16.80;99.90;;;;;;5066818;28;20032;-70
2022/10/17 09:22:17;;;;;;;13.25;7.72;;;16.80;99.90;;;;;;5061462;28;20131;-71
2022/10/17 09:24:53;;;;;;;15.65;7.53;;;16.80;99.90;;;;;;5050633;28;20068;-72
2022/10/17 09:27:39;;;;;;;12.07;8.35;;;16.80;99.90;;;;;;5054885;28;20063;-73
2022/10/17 09:30:20;;;;;;;12.00;7.78;;;16.80;99.90;;;;;;5055009;28;20064;-71
2022/10/17 09:32:46;;;;;;;15.63;8.52;;;16.80;99.90;;;;;;5052912;28;20045;-71
2022/10/17 09:35:15;;;;;;;14.57;8.20;;;16.80;99.90;;;;;;5044807;28;20574;-71
2022/10/17 09:37:41;;;;;;;15.88;8.18;;;16.80;99.90;;;;;;5046408;28;20583;-71
2022/10/17 09:40:15;;;;;;;13.73;7.65;;;16.80;99.90;;;;;;5056113;28;20036;-70
2022/10/17 09:42:43;;;;;;;14.05;8.18;;;16.80;99.90;;;;;;5054939;28;20075;-71
2022/10/17 09:45:32;;;;;;;18.45;9.45;;;16.80;99.90;;;;;;5061078;28;20739;-71
2022/10/17 09:48:04;;;;;;;14.85;8.32;;;16.80;99.90;;;;;;5063074;28;20051;-71
2022/10/17 09:50:32;;;;;;;12.20;8.43;;;16.80;99.90;;;;;;5063680;28;20071;-71
2022/10/17 09:53:11;;;;;;;14.45;8.50;;;16.80;99.90;;;;;;5060486;28;20405;-71
2022/10/17 09:55:44;;;;;;;15.07;9.63;;;16.80;99.90;;;;;;5058304;28;20122;-71
2022/10/17 09:58:10;;;;;;;13.88;8.65;;;16.70;99.90;;;;;;5058831;28;20125;-71
2022/10/17 10:00:42;;;;;;;14.18;7.95;;;16.80;99.90;;;;;;5061835;28;20052;-71
2022/10/17 10:03:26;;;;;;;14.30;9.02;;;16.70;99.90;;;;;;5056324;28;20505;-71
2022/10/17 10:06:11;;;;;;;14.82;9.60;;;16.70;99.90;;;;;;5057022;28;20145;-71
2022/10/17 10:08:51;;;;;;;11.93;8.68;;;16.70;99.90;;;;;;5055429;28;20037;-70
2022/10/17 10:11:18;;;;;;;14.63;9.60;;;16.60;99.90;;;;;;5057584;28;20052;-70
2022/10/17 10:13:47;;;;;;;12.13;8.65;;;16.60;99.90;;;;;;5050415;28;20052;-70
2022/10/17 10:16:18;;;;;;;15.27;9.88;;;16.60;99.90;;;;;;5057573;28;20040;-70
2022/10/17 10:18:45;;;;;;;16.00;9.40;;;16.60;99.90;;;;;;5045163;28;20045;-70
2022/10/17 10:21:17;;;;;;;16.10;8.93;;;16.60;99.90;;;;;;5049158;28;20055;-70
2022/10/17 10:23:44;;;;;;;14.38;8.75;;;16.60;99.90;;;;;;5052717;28;20186;-70
2022/10/17 10:26:20;;;;;;;15.73;9.82;;;16.60;99.90;;;;;;5051838;28;20060;-70
2022/10/17 10:29:01;;;;;;;14.15;8.77;;;16.60;99.90;;;;;;5057738;28;20060;-70
2022/10/17 10:31:32;;;;;;;;;;;16.50;99.90;;;;;;5078272;27;21327;-70
2022/10/17 10:34:01;;;;;;;15.25;9.60;;;16.50;99.90;;;;;;5055780;28;20479;-70
2022/10/17 10:36:47;;;;;;;11.63;8.70;;;16.60;99.90;;;;;;5051510;28;20425;-70
2022/10/17 10:39:30;;;;;;;12.63;9.10;;;16.60;99.90;;;;;;5061991;28;20040;-70
2022/10/17 10:41:57;;;;;;;16.63;10.15;;;16.60;99.90;;;;;;5071277;28;20044;-70
2022/10/17 10:44:27;;;;;;;16.60;10.00;;;16.60;99.90;;;;;;5065102;28;20044;-70
2022/10/17 10:47:17;;;;;;;12.25;8.48;;;16.60;99.90;;;;;;5061506;28;20079;-71
2022/10/17 10:49:43;;;;;;;13.70;8.50;;;16.60;99.90;;;;;;5056874;28;20401;-70
2022/10/17 10:52:33;;;;;;;13.70;9.38;;;16.60;99.90;;;;;;5043242;28;20325;-70
2022/10/17 10:55:29;;;;;;;15.45;8.95;;;16.60;99.90;;;;;;5066645;28;20519;-70
2022/10/17 10:58:05;;;;;;;13.10;8.30;;;16.60;99.90;;;;;;5060459;28;20051;-70
2022/10/17 11:00:33;;;;;;;14.82;9.75;;;16.60;99.90;;;;;;5056169;28;20127;-71
2022/10/17 11:03:16;;;;;;;12.13;8.63;;;16.60;99.90;;;;;;5059494;28;20071;-71
2022/10/17 11:05:52;;;;;;;11.68;8.27;;;16.60;99.90;;;;;;5052982;28;20040;-70
2022/10/17 11:08:56;;;;;;;13.32;8.32;;;16.60;99.90;;;;;;5085143;28;20671;-70
2022/10/17 11:11:38;;;;;;;16.50;9.23;;;16.60;99.90;;;;;;5066048;28;20082;-70
2022/10/17 11:14:34;;;;;;;14.30;8.63;;;16.70;99.90;;;;;;5062439;28;20045;-70
2022/10/17 11:17:18;;;;;;;12.75;8.93;;;16.70;99.90;;;;;;5064266;28;20071;-70
2022/10/17 11:20:07;;;;;;;14.38;9.70;;;16.70;99.90;;;;;;5047680;28;20044;-70
2022/10/17 11:22:40;;;;;;;14.25;8.38;;;16.70;99.90;;;;;;5056814;28;20045;-70
2022/10/17 11:25:12;;;;;;;14.13;9.35;;;16.70;99.90;;;;;;5078796;28;20048;-70
2022/10/17 11:27:38;;;;;;;15.90;8.48;;;16.70;99.90;;;;;;5068949;28;20045;-70
2022/10/17 11:30:05;;;;;;;21.52;9.82;;;16.70;99.90;;;;;;5068033;28;20063;-70
2022/10/17 11:32:59;;;;;;;16.67;9.80;;;16.70;99.90;;;;;;5060370;28;20086;-70
2022/10/17 11:35:46;;;;;;;13.68;8.45;;;16.70;99.90;;;;;;5064540;28;20048;-71
2022/10/17 11:38:24;;;;;;;13.32;9.02;;;16.80;99.90;;;;;;5056645;28;20501;-71
2022/10/17 11:40:58;;;;;;;14.48;8.18;;;16.70;99.90;;;;;;5062650;28;20136;-71
2022/10/17 11:43:26;;;;;;;11.85;7.63;;;16.70;99.90;;;;;;5067643;28;20100;-71
2022/10/17 11:45:57;;;;;;;11.25;7.80;;;16.70;99.90;;;;;;5058581;28;20411;-71
2022/10/17 11:48:28;;;;;;;12.63;7.72;;;16.70;99.90;;;;;;5051030;28;20051;-71
2022/10/17 11:51:05;;;;;;;14.32;7.40;;;16.70;99.90;;;;;;5064107;28;20047;-70
2022/10/17 11:53:41;;;;;;;11.00;8.07;;;16.70;99.90;;;;;;5066104;28;20523;-70
2022/10/17 11:56:10;;;;;;;10.40;6.95;;;16.70;99.90;;;;;;5057664;28;20508;-70
2022/10/17 11:58:53;;;;;;;10.70;6.63;;;16.70;99.90;;;;;;5063790;28;20052;-70
2022/10/17 12:01:32;;;;;;;9.68;6.40;;;16.70;99.90;;;;;;5056844;28;20048;-70
2022/10/17 12:04:24;;;;;;;11.32;6.47;;;16.70;99.90;;;;;;5062457;28;20125;-70
2022/10/17 12:07:08;;;;;;;10.73;6.03;;;16.70;99.90;;;;;;5061734;28;20052;-70
2022/10/17 12:09:47;;;;;;;8.90;5.28;;;16.70;99.90;;;;;;5060057;28;20174;-70
2022/10/17 12:12:28;;;;;;;8.93;5.35;;;16.70;99.90;;;;;;5060867;28;20081;-70
2022/10/17 12:15:14;;;;;;;8.45;5.78;;;16.70;99.90;;;;;;5063988;28;20113;-70
2022/10/17 12:17:43;;;;;;;11.18;6.28;;;16.60;99.90;;;;;;5059261;28;20497;-70
2022/10/17 12:20:24;;;;;;;9.20;5.90;;;16.70;99.90;;;;;;5056304;28;20094;-71
2022/10/17 12:23:02;;;;;;;9.52;6.03;;;16.80;99.90;;;;;;5066734;28;20101;-70
2022/10/17 12:25:34;;;;;;;13.32;7.03;;;16.80;99.90;;;;;;5062758;28;20041;-71
2022/10/17 12:28:05;;;;;;;12.75;6.63;;;16.80;99.90;;;;;;5057438;28;20048;-70
2022/10/17 12:30:32;;;;;;;13.05;6.18;;;16.80;99.90;;;;;;5057829;28;20040;-70
2022/10/17 12:33:05;;;;;;;9.32;5.82;;;16.90;99.90;;;;;;5041013;28;20045;-70
2022/10/17 12:35:33;;;;;;;8.95;5.70;;;16.90;99.90;;;;;;5062346;28;20048;-70
2022/10/17 12:38:16;;;;;;;9.00;4.75;;;16.80;99.90;;;;;;5051912;28;20123;-70
2022/10/17 12:40:42;;;;;;;9.85;5.80;;;16.80;99.90;;;;;;5066654;28;20056;-69
2022/10/17 12:43:16;;;;;;;9.70;5.38;;;16.80;99.90;;;;;;5067096;28;20044;-69
2022/10/17 12:45:50;;;;;;;10.93;5.88;;;16.80;99.90;;;;;;5058488;28;20412;-69
2022/10/17 12:48:35;;;;;;;9.75;5.43;;;16.80;99.90;;;;;;5066801;28;20642;-69
2022/10/17 12:51:21;;;;;;;11.02;5.22;;;16.80;99.90;;;;;;5057078;28;20131;-69
2022/10/17 12:54:00;;;;;;;10.07;5.43;;;16.80;99.90;;;;;;5091204;27;20101;-69
2022/10/17 12:56:45;;;;;;;9.60;5.55;;;16.70;99.90;;;;;;5070036;28;20052;-69
2022/10/17 12:59:22;;;;;;;8.90;5.05;;;16.80;99.90;;;;;;5072764;28;20076;-69